X  Sluiten METAR luchtvaart weer gegevens      KDNN Dalton Municipal Airport
Temperatuur
55°F Temperatuur
25°F Dauwpunt
31% Vochtigheid



Wind
10 MPH
16 KM/U
4 M/S
9 KTS



140°
ZO
Huidig weer

Wat bewolking Wat bewolking
Luchtdruk 1026.42 (hPa) - 30.31 (inHg)
Zicht 10 (mijl) - 16.1 (km)
Vliegveld
Vliegveld code KDNN

Locatie : Dalton Municipal Airport
Afstand: 34 (mi)

Metar:
KDNN 282015Z AUTO 14009KT 10SM FEW240 13/M04 A3031 RMK AO2 T01281042

Tijd: 01-28-2023 15:15 EST